TAF LFLY
LFLY 270500Z 2706/2806 20012KT CAVOK PROB40 TEMPO 2713/2718 SHRA SCT025TCU BKN050 PROB30 TEMPO 2713/2718 VRB15G25KT 2000 SHGS FEW015CB BECMG 2721/2724 VRB03KT BKN030 TEMPO 2723/2803 RA BKN020 TEMPO 2803/2806 4000 RASN BKN015 PROB30 TEMPO 2804/2806 1500 SN OVC008=
METAR LFLY
LFLY 270730Z AUTO 18010KT 9999 BKN047 OVC056 04/00 Q0994 NOSIG=
LFLY 270700Z AUTO 19010KT 9999 BKN043 OVC058 04/00 Q0994 NOSIG=
LFLY 270630Z AUTO 20006KT 9999 FEW046 OVC200 03/M00 Q0993 NOSIG=
LFLY 270600Z AUTO 17012KT CAVOK 04/M00 Q0993 NOSIG=
LFLY 270530Z AUTO 17014KT CAVOK 04/M00 Q0993 NOSIG=
WC LFLY
WS LFLY
WV LFLY